createdAt,value
2022-08-12T00:00:38.217Z,94263.81
2022-08-12T00:03:23.695Z,94266.81
2022-08-12T00:06:10.326Z,94264.91
2022-08-12T00:08:57.177Z,94267.63
2022-08-12T00:11:42.878Z,94271.41
2022-08-12T00:14:28.821Z,94265.19
2022-08-12T00:17:14.093Z,94267.91
2022-08-12T00:19:59.520Z,94261.63
2022-08-12T00:22:46.311Z,94254.56
2022-08-12T00:26:20.022Z,94255.66
2022-08-12T00:28:49.858Z,94261.94
2022-08-12T00:31:35.317Z,94255.66
2022-08-12T00:34:20.717Z,94250.19
2022-08-12T00:37:13.226Z,94255.97
2022-08-12T00:40:00.384Z,94255.97
2022-08-12T00:42:27.166Z,94259.78
2022-08-12T00:44:57.225Z,94251.59
2022-08-12T00:47:26.110Z,94248.06
2022-08-12T00:49:54.276Z,94249.94
2022-08-12T00:52:21.945Z,94245.59
2022-08-12T00:54:52.279Z,94258.44
2022-08-12T00:57:21.351Z,94254.88
2022-08-12T00:59:50.763Z,94258.44
2022-08-12T01:02:24.503Z,94253.25
2022-08-12T01:05:11.403Z,94250.53
2022-08-12T01:08:11.785Z,94247.81
2022-08-12T01:10:58.828Z,94249.72
2022-08-12T01:13:26.591Z,94248.91
2022-08-12T01:15:55.457Z,94252.44
2022-08-12T01:18:23.552Z,94244.56
2022-08-12T01:20:57.470Z,94244.56
2022-08-12T01:23:48.603Z,94237.22
2022-08-12T01:26:19.133Z,94239.09
2022-08-12T01:28:48.496Z,94241.03
2022-08-12T01:31:18.785Z,94238.59
2022-08-12T01:33:51.602Z,94244.03
2022-08-12T01:36:19.225Z,94236.97
2022-08-12T01:38:48.101Z,94230.69
2022-08-12T01:41:16.487Z,94242.41
2022-08-12T01:43:45.559Z,94240.78
2022-08-12T01:46:17.701Z,94234.50
2022-08-12T01:49:01.068Z,94234.50
2022-08-12T01:52:20.171Z,94225.53
2022-08-12T01:54:28.618Z,94230.16
2022-08-12T01:56:59.994Z,94229.34
2022-08-12T01:59:50.573Z,94225.81
2022-08-12T02:02:19.632Z,94223.09
2022-08-12T02:05:14.042Z,94220.63
2022-08-12T02:08:02.479Z,94211.66
2022-08-12T02:10:53.873Z,94216.28
2022-08-12T02:13:43.831Z,94217.38
2022-08-12T02:16:24.560Z,94214.66
2022-08-12T02:18:55.527Z,94214.66
2022-08-12T02:21:27.000Z,94213.03
2022-08-12T02:23:54.824Z,94211.13
2022-08-12T02:26:22.618Z,94218.47
2022-08-12T02:28:52.047Z,94213.03
2022-08-12T02:31:21.101Z,94206.78
2022-08-12T02:33:49.492Z,94200.53
2022-08-12T02:36:17.298Z,94204.34
2022-08-12T02:38:45.681Z,94206.25
2022-08-12T02:41:13.546Z,94204.34
2022-08-12T02:43:44.344Z,94201.09
2022-08-12T02:46:14.754Z,94194.81
2022-08-12T02:48:47.905Z,94188.56
2022-08-12T02:51:21.282Z,94186.94
2022-08-12T02:54:03.299Z,94188.06
2022-08-12T02:56:34.573Z,94189.69
2022-08-12T02:59:02.218Z,94188.06
2022-08-12T03:01:33.855Z,94191.56
2022-08-12T03:04:04.678Z,94190.78
2022-08-12T03:06:35.152Z,94193.78
2022-08-12T03:09:03.823Z,94192.97
2022-08-12T03:11:41.674Z,94195.69
2022-08-12T03:14:12.011Z,94195.69
2022-08-12T03:16:40.197Z,94197.59
2022-08-12T03:19:09.289Z,94202.25
2022-08-12T03:21:55.533Z,94194.88
2022-08-12T03:24:27.283Z,94196.78
2022-08-12T03:26:54.970Z,94197.06
2022-08-12T03:29:30.346Z,94194.34
2022-08-12T03:31:59.966Z,94193.50
2022-08-12T03:34:29.831Z,94194.34
2022-08-12T03:36:58.573Z,94193.00
2022-08-12T03:39:35.947Z,94186.44
2022-08-12T03:42:09.267Z,94191.91
2022-08-12T03:44:56.732Z,94196.25
2022-08-12T03:47:43.858Z,94191.09
2022-08-12T03:50:30.094Z,94199.53
2022-08-12T03:53:15.459Z,94194.91
2022-08-12T03:56:00.716Z,94196.53
2022-08-12T03:58:46.063Z,94187.53
2022-08-12T04:01:14.052Z,94191.09
2022-08-12T04:03:53.769Z,94201.97
2022-08-12T04:06:35.461Z,94194.09
2022-08-12T04:09:05.149Z,94188.13
2022-08-12T04:12:00.070Z,94196.28
2022-08-12T04:14:28.308Z,94191.66
2022-08-12T04:16:55.961Z,94190.84
2022-08-12T04:19:23.951Z,94193.56
2022-08-12T04:22:02.082Z,94192.72
2022-08-12T04:24:31.110Z,94188.38
2022-08-12T04:26:59.173Z,94193.03
2022-08-12T04:30:30.212Z,94196.84
2022-08-12T04:32:15.581Z,94207.75
2022-08-12T04:34:44.443Z,94200.69
2022-08-12T04:37:15.954Z,94201.78
2022-08-12T04:39:43.712Z,94202.56
2022-08-12T04:42:11.609Z,94202.56
2022-08-12T04:44:39.321Z,94208.03
2022-08-12T04:47:07.133Z,94203.16
2022-08-12T04:49:34.804Z,94203.94
2022-08-12T04:52:03.223Z,94207.75
2022-08-12T04:54:33.546Z,94210.47
2022-08-12T04:57:04.422Z,94206.97
2022-08-12T04:59:47.108Z,94211.31
2022-08-12T05:02:21.212Z,94208.59
2022-08-12T05:04:51.114Z,94214.59
2022-08-12T05:07:18.825Z,94206.19
2022-08-12T05:10:00.524Z,94204.00
2022-08-12T05:12:34.154Z,94203.47
2022-08-12T05:15:01.872Z,94212.72
2022-08-12T05:17:29.533Z,94209.47
2022-08-12T05:19:58.109Z,94213.28
2022-08-12T05:22:26.635Z,94216.53
2022-08-12T05:24:55.754Z,94220.06
2022-08-12T05:27:23.608Z,94216.25
2022-08-12T05:30:07.470Z,94216.00
2022-08-12T05:32:37.266Z,94214.66
2022-08-12T05:35:07.174Z,94228.53
2022-08-12T05:37:35.310Z,94225.81
2022-08-12T05:40:10.565Z,94234.81
2022-08-12T05:42:38.775Z,94233.97
2022-08-12T05:45:07.287Z,94227.44
2022-08-12T05:47:48.735Z,94225.81
2022-08-12T05:50:21.765Z,94230.16
2022-08-12T05:52:49.419Z,94233.97
2022-08-12T05:55:24.171Z,94235.91
2022-08-12T05:57:55.271Z,94225.03
2022-08-12T06:00:25.457Z,94224.19
2022-08-12T06:02:56.393Z,94226.66
2022-08-12T06:05:24.608Z,94232.88
2022-08-12T06:08:01.676Z,94222.00
2022-08-12T06:10:32.925Z,94232.88
2022-08-12T06:13:02.390Z,94233.19
2022-08-12T06:15:30.247Z,94236.44
2022-08-12T06:18:05.277Z,94237.53
2022-08-12T06:20:41.729Z,94239.16
2022-08-12T06:23:11.658Z,94243.50
2022-08-12T06:25:42.043Z,94239.94
2022-08-12T06:28:17.605Z,94242.66
2022-08-12T06:30:57.347Z,94238.88
2022-08-12T06:33:55.604Z,94233.97
2022-08-12T06:36:23.199Z,94232.03
2022-08-12T06:38:51.767Z,94240.22
2022-08-12T06:41:38.285Z,94232.56
2022-08-12T06:44:20.392Z,94234.50
2022-08-12T06:46:48.237Z,94234.19
2022-08-12T06:49:15.863Z,94232.31
2022-08-12T06:51:56.077Z,94234.75
2022-08-12T06:54:30.821Z,94226.59
2022-08-12T06:57:04.287Z,94223.56
2022-08-12T06:59:35.497Z,94223.31
2022-08-12T07:02:03.239Z,94221.38
2022-08-12T07:04:37.931Z,94223.81
2022-08-12T07:07:07.132Z,94222.72
2022-08-12T07:10:01.613Z,94229.81
2022-08-12T07:12:27.986Z,94225.97
2022-08-12T07:14:55.976Z,94227.59
2022-08-12T07:17:23.846Z,94224.88
2022-08-12T07:19:53.780Z,94229.22
2022-08-12T07:22:23.235Z,94223.50
2022-08-12T07:25:11.529Z,94227.84
2022-08-12T07:27:42.610Z,94224.34
2022-08-12T07:30:11.592Z,94230.59
2022-08-12T07:32:39.195Z,94226.75
2022-08-12T07:35:07.772Z,94228.69
2022-08-12T07:37:40.645Z,94232.22
2022-08-12T07:40:11.661Z,94237.66
2022-08-12T07:42:40.981Z,94239.28
2022-08-12T07:45:09.617Z,94228.38
2022-08-12T07:47:37.842Z,94224.56
2022-08-12T07:50:09.128Z,94224.56
2022-08-12T07:52:37.140Z,94230.84
2022-08-12T07:55:05.489Z,94234.34
2022-08-12T07:57:33.453Z,94228.13
2022-08-12T08:00:05.097Z,94239.81
2022-08-12T08:02:33.535Z,94237.91
2022-08-12T08:05:01.194Z,94233.25
2022-08-12T08:07:29.699Z,94239.53
2022-08-12T08:09:59.414Z,94230.53
2022-08-12T08:12:45.038Z,94232.19
2022-08-12T08:15:15.075Z,94234.91
2022-08-12T08:17:52.855Z,94238.44
2022-08-12T08:20:28.447Z,94238.44
2022-08-12T08:22:57.651Z,94242.00
2022-08-12T08:25:35.915Z,94240.88
2022-08-12T08:28:06.736Z,94235.44
2022-08-12T08:30:37.468Z,94239.78
2022-08-12T08:33:08.656Z,94244.41
2022-08-12T08:35:54.385Z,94239.78
2022-08-12T08:38:31.785Z,94237.06
2022-08-12T08:42:15.897Z,94243.03
2022-08-12T08:44:06.123Z,94240.59
2022-08-12T08:46:37.536Z,94234.03
2022-08-12T08:49:05.779Z,94233.25
2022-08-12T08:51:33.698Z,94237.59
2022-08-12T08:54:01.441Z,94243.03
2022-08-12T08:56:30.161Z,94241.41
2022-08-12T08:58:58.498Z,94234.88
2022-08-12T09:01:26.203Z,94241.94
2022-08-12T09:05:10.124Z,94239.22
2022-08-12T09:06:53.846Z,94236.50
2022-08-12T09:09:23.872Z,94237.59
2022-08-12T09:14:56.805Z,94238.13
2022-08-12T09:17:24.507Z,94243.28
2022-08-12T09:19:58.345Z,94242.47
2022-08-12T09:22:29.235Z,94244.09
2022-08-12T09:28:03.881Z,94242.47
2022-08-12T09:30:41.678Z,94238.66
2022-08-12T09:33:14.680Z,94239.47
2022-08-12T09:36:05.065Z,94231.31
2022-08-12T09:38:35.303Z,94230.19
2022-08-12T09:42:34.090Z,94230.19
2022-08-12T09:44:38.121Z,94231.00
2022-08-12T09:46:56.263Z,94239.16
2022-08-12T09:49:25.079Z,94231.00
2022-08-12T09:51:55.193Z,94230.19
2022-08-12T09:54:33.814Z,94235.34
2022-08-12T09:58:47.065Z,94236.44
2022-08-12T10:00:16.324Z,94240.00
2022-08-12T10:02:59.886Z,94239.69
2022-08-12T10:06:20.402Z,94227.19
2022-08-12T10:08:17.604Z,94221.47
2022-08-12T10:11:03.317Z,94221.19
2022-08-12T10:13:46.130Z,94215.44
2022-08-12T10:16:21.745Z,94217.88
2022-08-12T10:18:52.852Z,94221.13
2022-08-12T10:21:21.440Z,94214.31
2022-08-12T10:23:56.066Z,94214.31
2022-08-12T10:26:42.477Z,94202.31
2022-08-12T10:30:37.938Z,94214.25
2022-08-12T10:32:45.278Z,94215.38
2022-08-12T10:35:09.699Z,94217.00
2022-08-12T10:38:35.505Z,94207.19
2022-08-12T10:40:32.248Z,94209.66
2022-08-12T10:43:18.441Z,94204.19
2022-08-12T10:45:47.079Z,94202.28
2022-08-12T10:48:21.693Z,94199.53
2022-08-12T10:51:01.821Z,94203.38
2022-08-12T10:53:45.990Z,94199.84
2022-08-12T10:56:16.309Z,94194.41
2022-08-12T10:58:46.060Z,94194.41
2022-08-12T11:01:50.213Z,94201.47
2022-08-12T11:04:24.693Z,94203.63
2022-08-12T11:07:09.093Z,94199.84
2022-08-12T11:10:00.625Z,94201.47
2022-08-12T11:12:55.110Z,94195.19
2022-08-12T11:15:33.415Z,94197.13
2022-08-12T11:18:12.271Z,94195.19
2022-08-12T11:20:47.903Z,94195.19
2022-08-12T11:23:24.614Z,94187.31
2022-08-12T11:26:05.903Z,94197.13
2022-08-12T11:28:37.428Z,94192.75
2022-08-12T11:31:06.782Z,94191.69
2022-08-12T11:34:05.426Z,94197.91
2022-08-12T11:36:25.214Z,94206.09
2022-08-12T11:38:54.001Z,94199.84
2022-08-12T11:41:27.915Z,94187.31
2022-08-12T11:44:29.135Z,94196.03
2022-08-12T11:46:51.175Z,94187.03
2022-08-12T11:49:26.789Z,94198.75
2022-08-12T11:52:01.535Z,94187.84
2022-08-12T11:54:29.578Z,94194.09
2022-08-12T11:56:59.654Z,94188.66
2022-08-12T12:02:02.849Z,94184.81
2022-08-12T12:02:20.684Z,94181.31
2022-08-12T12:05:08.535Z,94183.19
2022-08-12T12:08:38.744Z,94185.94
2022-08-12T12:10:26.934Z,94181.31
2022-08-12T12:12:54.561Z,94168.47
2022-08-12T12:15:25.280Z,94172.31
2022-08-12T12:18:08.338Z,94172.03
2022-08-12T12:20:40.424Z,94162.22
2022-08-12T12:23:08.327Z,94176.66
2022-08-12T12:26:07.367Z,94174.75
2022-08-12T12:28:38.153Z,94167.38
2022-08-12T12:31:15.097Z,94161.13
2022-08-12T12:33:58.149Z,94150.25
2022-08-12T12:36:29.943Z,94147.22
2022-08-12T12:39:00.163Z,94145.31
2022-08-12T12:42:41.685Z,94149.13
2022-08-12T12:44:41.920Z,94146.41
2022-08-12T12:47:29.917Z,94139.88
2022-08-12T12:50:00.103Z,94142.59
2022-08-12T12:52:27.749Z,94145.31
2022-08-12T12:54:58.496Z,94136.03
2022-08-12T12:57:58.903Z,94133.31
2022-08-12T13:00:18.504Z,94134.13
2022-08-12T13:02:54.077Z,94131.09
2022-08-12T13:05:27.848Z,94135.44
2022-08-12T13:08:00.977Z,94135.44
2022-08-12T13:10:32.056Z,94137.06
2022-08-12T13:14:07.631Z,94134.06
2022-08-12T13:15:52.300Z,94128.91
2022-08-12T13:18:28.550Z,94126.19
2022-08-12T13:20:59.424Z,94133.56
2022-08-12T13:23:36.084Z,94128.91
2022-08-12T13:26:05.317Z,94128.09
2022-08-12T13:28:32.994Z,94125.38
2022-08-12T13:31:00.802Z,94126.19
2022-08-12T13:33:29.752Z,94115.28
2022-08-12T13:36:18.878Z,94118.00
2022-08-12T13:38:52.071Z,94116.09
2022-08-12T13:41:33.588Z,94116.09
2022-08-12T13:44:01.419Z,94121.56
2022-08-12T13:46:29.156Z,94116.09
2022-08-12T13:48:58.152Z,94114.19
2022-08-12T13:51:26.070Z,94118.53
2022-08-12T13:54:11.547Z,94116.91
2022-08-12T13:56:39.352Z,94112.28
2022-08-12T13:59:08.522Z,94111.47
2022-08-12T14:01:40.020Z,94111.19
2022-08-12T14:04:11.337Z,94122.91
2022-08-12T14:06:39.788Z,94116.63
2022-08-12T14:09:17.517Z,94117.47
2022-08-12T14:11:58.629Z,94122.91
2022-08-12T14:14:27.937Z,94113.91
2022-08-12T14:17:00.169Z,94112.81
2022-08-12T14:19:32.986Z,94111.69
2022-08-12T14:22:06.699Z,94113.63
2022-08-12T14:24:40.277Z,94110.06
2022-08-12T14:27:10.264Z,94109.28
2022-08-12T14:30:06.192Z,94104.63
2022-08-12T14:32:31.142Z,94103.84
2022-08-12T14:35:00.098Z,94106.25
2022-08-12T14:37:57.113Z,94092.94
2022-08-12T14:40:18.720Z,94087.47
2022-08-12T14:42:55.564Z,94102.72
2022-08-12T14:45:44.874Z,94100.00
2022-08-12T14:48:13.632Z,94102.41
2022-08-12T14:51:03.215Z,94096.97
2022-08-12T14:57:05.803Z,94098.31
2022-08-12T14:59:25.365Z,94098.31
2022-08-12T15:01:54.643Z,94097.50
2022-08-12T15:04:24.473Z,94099.41
2022-08-12T15:06:55.786Z,94096.69
2022-08-12T15:09:29.272Z,94091.25
2022-08-12T15:12:03.366Z,94102.16
2022-08-12T15:14:31.863Z,94103.78
2022-08-12T15:17:00.676Z,94090.16
2022-08-12T15:20:11.592Z,94093.94
2022-08-12T15:22:38.645Z,94096.63
2022-08-12T15:25:07.381Z,94091.34
2022-08-12T15:28:20.692Z,94093.41
2022-08-12T15:30:24.741Z,94092.50
2022-08-12T15:32:53.477Z,94086.38
2022-08-12T15:35:23.666Z,94090.38
2022-08-12T15:38:10.074Z,94097.41
2022-08-12T15:40:48.534Z,94088.88
2022-08-12T15:43:35.654Z,94090.41
2022-08-12T15:46:06.181Z,94092.78
2022-08-12T15:48:34.149Z,94092.72
2022-08-12T15:51:03.013Z,94095.13
2022-08-12T15:53:49.663Z,94090.69
2022-08-12T15:56:29.444Z,94089.47
2022-08-12T15:58:58.799Z,94087.25
2022-08-12T16:01:35.444Z,94086.38
2022-08-12T16:04:05.529Z,94083.88
2022-08-12T16:07:00.447Z,94082.47
2022-08-12T16:09:55.866Z,94081.06
2022-08-12T16:12:12.041Z,94083.22
2022-08-12T16:14:40.011Z,94082.91
2022-08-12T16:17:08.865Z,94077.94
2022-08-12T16:20:02.720Z,94074.94
2022-08-12T16:22:30.672Z,94069.69
2022-08-12T16:25:01.003Z,94070.22
2022-08-12T16:27:29.581Z,94064.47
2022-08-12T16:29:59.125Z,94076.19
2022-08-12T16:32:31.643Z,94068.50
2022-08-12T16:35:00.651Z,94065.19
2022-08-12T16:37:32.756Z,94069.22
2022-08-12T16:40:18.814Z,94065.09
2022-08-12T16:42:53.829Z,94072.47
2022-08-12T16:45:32.086Z,94065.88
2022-08-12T16:48:33.903Z,94070.28
2022-08-12T16:51:09.421Z,94066.44
2022-08-12T16:53:43.905Z,94059.84
2022-08-12T16:56:15.733Z,94059.03
2022-08-12T16:58:44.679Z,94067.94
2022-08-12T17:01:14.605Z,94062.78
2022-08-12T17:03:51.785Z,94069.34
2022-08-12T17:06:22.667Z,94063.59
2022-08-12T17:09:02.281Z,94066.03
2022-08-12T17:11:31.854Z,94062.50
2022-08-12T17:13:59.829Z,94062.38
2022-08-12T17:16:29.905Z,94067.84
2022-08-12T17:19:03.132Z,94064.63
2022-08-12T17:21:40.916Z,94065.94
2022-08-12T17:24:21.323Z,94070.00
2022-08-12T17:26:53.036Z,94068.91
2022-08-12T17:29:32.561Z,94071.31
2022-08-12T17:32:10.904Z,94078.41
2022-08-12T17:34:55.930Z,94071.06
2022-08-12T17:37:23.550Z,94071.88
2022-08-12T17:40:15.280Z,94075.91
2022-08-12T17:42:40.535Z,94072.88
2022-08-12T17:45:18.356Z,94078.84
2022-08-12T17:48:01.279Z,94088.66
2022-08-12T17:50:33.314Z,94089.50
2022-08-12T17:53:02.946Z,94102.84
2022-08-12T17:55:40.371Z,94097.69
2022-08-12T17:58:14.264Z,94091.91
2022-08-12T18:00:44.906Z,94093.84
2022-08-12T18:03:13.520Z,94100.09
2022-08-12T18:06:14.421Z,94094.97
2022-08-12T18:08:55.004Z,94096.56
2022-08-12T18:12:05.639Z,94104.47
2022-08-12T18:14:30.645Z,94101.72
2022-08-12T18:17:00.394Z,94112.38
2022-08-12T18:19:28.664Z,94109.63
2022-08-12T18:22:17.481Z,94108.81
2022-08-12T18:24:45.630Z,94117.31
2022-08-12T18:27:29.896Z,94118.72
2022-08-12T18:30:04.763Z,94117.00
2022-08-12T18:32:53.922Z,94119.44
2022-08-12T18:35:22.823Z,94116.44
2022-08-12T18:38:09.033Z,94119.16
2022-08-12T18:40:55.632Z,94119.97
2022-08-12T18:43:24.125Z,94129.28
2022-08-12T18:45:56.979Z,94132.50
2022-08-12T18:48:25.267Z,94122.69
2022-08-12T18:51:05.069Z,94140.41
2022-08-12T18:54:06.354Z,94126.25
2022-08-12T18:56:33.560Z,94130.28
2022-08-12T18:59:02.006Z,94136.56
2022-08-12T19:02:19.199Z,94137.19
2022-08-12T19:04:19.458Z,94132.28
2022-08-12T19:06:47.153Z,94135.34
2022-08-12T19:09:16.265Z,94135.34
2022-08-12T19:12:03.450Z,94138.56
2022-08-12T19:14:32.694Z,94133.72
2022-08-12T19:17:05.162Z,94141.59
2022-08-12T19:19:37.444Z,94141.91
2022-08-12T19:22:09.691Z,94141.91
2022-08-12T19:24:55.167Z,94144.66
2022-08-12T19:27:22.839Z,94139.78
2022-08-12T19:30:06.106Z,94142.53
2022-08-12T19:32:38.814Z,94146.34
2022-08-12T19:38:06.689Z,94144.44
2022-08-12T19:40:35.035Z,94142.81
2022-08-12T19:43:17.313Z,94143.81
2022-08-12T19:45:50.297Z,94137.06
2022-08-12T19:48:20.397Z,94140.88
2022-08-12T19:50:50.220Z,94136.50
2022-08-12T19:53:23.024Z,94133.00
2022-08-12T19:55:52.626Z,94133.00
2022-08-12T19:58:20.690Z,94138.75
2022-08-12T20:00:56.450Z,94136.31
2022-08-12T20:03:39.320Z,94134.72
2022-08-12T20:06:13.645Z,94134.97
2022-08-12T20:08:47.877Z,94136.59
2022-08-12T20:12:12.225Z,94134.97
2022-08-12T20:14:04.960Z,94132.00
2022-08-12T20:16:52.020Z,94135.06
2022-08-12T20:19:23.952Z,94129.88
2022-08-12T20:22:24.664Z,94126.94
2022-08-12T20:24:58.318Z,94133.50
2022-08-12T20:28:04.425Z,94126.69
2022-08-12T20:30:20.133Z,94120.72
2022-08-12T20:32:56.747Z,94127.31
2022-08-12T20:36:05.849Z,94124.88
2022-08-12T20:38:26.361Z,94131.44
2022-08-12T20:40:58.477Z,94130.13
2022-08-12T20:43:28.402Z,94134.25
2022-08-12T20:45:59.704Z,94133.75
2022-08-12T20:48:29.372Z,94137.59
2022-08-12T20:51:03.937Z,94135.97
2022-08-12T20:53:57.646Z,94137.06
2022-08-12T20:56:30.220Z,94142.81
2022-08-12T20:58:59.956Z,94137.13
2022-08-12T21:01:28.922Z,94144.31
2022-08-12T21:04:24.420Z,94149.25
2022-08-12T21:07:04.724Z,94137.81
2022-08-12T21:09:40.542Z,94149.03
2022-08-12T21:12:31.297Z,94145.78
2022-08-12T21:15:23.515Z,94143.34
2022-08-12T21:18:01.169Z,94139.81
2022-08-12T21:20:35.950Z,94151.00
2022-08-12T21:23:06.569Z,94143.94
2022-08-12T21:25:44.077Z,94138.56
2022-08-12T21:28:14.785Z,94137.22
2022-08-12T21:30:54.702Z,94138.31
2022-08-12T21:33:31.377Z,94142.75
2022-08-12T21:36:02.898Z,94130.50
2022-08-12T21:38:40.319Z,94135.44
2022-08-12T21:41:15.566Z,94135.50
2022-08-12T21:43:48.663Z,94137.72
2022-08-12T21:46:33.790Z,94130.69
2022-08-12T21:49:05.588Z,94133.41
2022-08-12T21:51:49.025Z,94128.81
2022-08-12T21:54:21.960Z,94123.97
2022-08-12T21:56:53.749Z,94130.22
2022-08-12T22:01:58.760Z,94125.06
2022-08-12T22:04:44.240Z,94136.78
2022-08-12T22:07:18.757Z,94125.63
2022-08-12T22:09:48.052Z,94121.00
2022-08-12T22:12:34.004Z,94124.31
2022-08-12T22:15:06.391Z,94118.91
2022-08-12T22:17:50.302Z,94112.94
2022-08-12T22:20:23.781Z,94118.41
2022-08-12T22:22:59.543Z,94113.78
2022-08-12T22:25:28.599Z,94116.19
2022-08-12T22:28:14.524Z,94114.28
2022-08-12T22:31:00.887Z,94115.91
2022-08-12T22:33:28.510Z,94108.00
2022-08-12T22:35:59.847Z,94117.00
2022-08-12T22:38:29.732Z,94110.53
2022-08-12T22:41:00.872Z,94116.78
2022-08-12T22:43:58.800Z,94120.25
2022-08-12T22:46:53.632Z,94112.34
2022-08-12T22:49:22.436Z,94119.50
2022-08-12T22:52:06.611Z,94105.13
2022-08-12T22:54:37.470Z,94110.34
2022-08-12T22:57:15.773Z,94104.38
2022-08-12T22:59:55.056Z,94104.97
2022-08-12T23:02:28.848Z,94102.81
2022-08-12T23:04:57.699Z,94092.19
2022-08-12T23:07:25.353Z,94093.28
2022-08-12T23:09:54.807Z,94090.56
2022-08-12T23:12:47.005Z,94085.94
2022-08-12T23:15:16.595Z,94087.59
2022-08-12T23:17:46.909Z,94081.34
2022-08-12T23:20:17.032Z,94085.72
2022-08-12T23:22:56.206Z,94079.75
2022-08-12T23:25:32.673Z,94071.03
2022-08-12T23:28:37.348Z,94076.78
2022-08-12T23:31:06.878Z,94080.53
2022-08-12T23:34:01.370Z,94080.53
2022-08-12T23:36:31.815Z,94079.75
2022-08-12T23:40:13.740Z,94068.72
2022-08-12T23:42:17.120Z,94066.78
2022-08-12T23:44:45.581Z,94068.91
2022-08-12T23:47:14.133Z,94070.84
2022-08-12T23:49:57.792Z,94073.25
2022-08-12T23:52:28.642Z,94079.53
2022-08-12T23:55:24.041Z,94074.88
2022-08-12T23:58:18.427Z,94076.81
